Time;durP1;ratioP1;P1;durP2;ratioP2;P2;SDS_P1;SDS_P2;PMS_P1;PMS_P2;Temp;Humidity;BMP_temperature;BMP_pressure;BME280_temperature;BME280_humidity;BME280_pressure;Samples;Min_cycle;Max_cycle;Signal;HPM_P1;HPM_P2
2023/09/14 00:01:16;;;;;;;6.82;2.60;;;;;;;-144.05;83.83;56933.78;4996660;28;20030;-78
2023/09/14 00:03:42;;;;;;;7.35;2.38;;;;;;;-144.05;84.15;56972.03;4976340;28;20026;-80
2023/09/14 00:06:09;;;;;;;7.40;2.92;;;12.70;99.90;;;-144.05;84.17;56967.78;4998825;28;20026;-79
2023/09/14 00:08:35;;;;;;;8.55;2.78;;;9.20;99.90;;;-144.05;83.66;56931.66;4992057;28;20523;-77
2023/09/14 00:11:03;;;;;;;4.65;2.15;;;9.50;99.90;;;-144.05;83.76;56933.78;4991543;28;20053;-79
2023/09/14 00:13:30;;;;;;;6.07;2.70;;;;;;;-144.05;83.47;56931.66;4991900;28;20030;-77
2023/09/14 00:15:56;;;;;;;5.88;2.58;;;16.30;99.90;;;-144.05;83.85;56969.91;4990230;28;20031;-79
2023/09/14 00:18:22;;;;;;;7.88;2.40;;;9.20;99.90;;;-144.05;83.74;56965.66;4991827;28;20026;-79
2023/09/14 00:20:52;;;;;;;5.38;2.40;;;9.30;99.90;;;-144.05;83.70;56940.16;4991610;28;20048;-78
2023/09/14 00:23:20;;;;;;;9.82;3.50;;;;;;;-144.05;83.64;56965.66;4991751;28;20069;-78
2023/09/14 00:25:46;;;;;;;9.02;2.95;;;8.70;99.90;;;-144.05;83.66;56978.41;4974142;28;20050;-79
2023/09/14 00:28:12;;;;;;;7.72;3.03;;;16.10;99.90;;;-144.05;83.46;56963.53;4974044;28;20066;-78
2023/09/14 00:30:38;;;;;;;7.40;2.88;;;;;;;-144.05;83.28;56938.03;4992859;28;20514;-77
2023/09/14 00:33:04;;;;;;;11.48;3.33;;;15.50;99.90;;;-144.05;83.72;56938.03;4995680;28;20030;-78
2023/09/14 00:35:30;;;;;;;6.90;2.70;;;10.60;99.90;;;-144.05;82.72;56950.78;4995605;28;20036;-79
2023/09/14 00:37:56;;;;;;;8.02;2.97;;;15.50;99.90;;;-144.05;82.32;56965.66;4995306;28;20050;-77
2023/09/14 00:40:23;;;;;;;13.30;3.20;;;15.10;99.90;;;-144.05;81.81;56972.03;4993924;28;20026;-78
2023/09/14 00:42:51;;;;;;;9.63;3.28;;;9.40;99.90;;;-144.05;81.53;56967.78;4995263;28;20023;-77
2023/09/14 00:45:22;;;;;;;8.60;2.95;;;15.30;99.90;;;-144.05;81.86;56944.41;4993711;28;20037;-79
2023/09/14 00:47:54;;;;;;;11.30;2.88;;;15.50;99.90;;;-144.05;81.97;56972.03;4995260;28;20101;-79
2023/09/14 00:50:21;;;;;;;9.45;2.70;;;15.50;99.90;;;-144.05;82.15;56946.53;4995020;28;20022;-79
2023/09/14 00:52:58;;;;;;;5.45;2.17;;;15.50;99.90;;;-144.05;82.59;56955.03;4995017;28;20026;-79
2023/09/14 00:55:27;;;;;;;7.78;2.70;;;12.60;99.90;;;-144.05;82.59;56984.78;4994905;28;20396;-78
2023/09/14 00:57:57;;;;;;;7.82;2.58;;;14.50;99.90;;;-144.05;82.80;56948.66;4995090;28;20054;-78
2023/09/14 01:00:24;;;;;;;5.47;2.92;;;;;;;-144.05;82.95;56918.94;4993398;28;20030;-79
2023/09/14 01:02:55;;;;;;;4.88;2.33;;;9.70;99.90;;;-144.05;82.98;56963.53;4995274;28;20440;-78
2023/09/14 01:05:21;;;;;;;6.63;2.58;;;9.70;99.90;;;-144.05;83.03;56963.53;4995057;28;20030;-78
2023/09/14 01:07:47;;;;;;;5.90;2.60;;;15.50;99.90;;;-144.05;83.08;56980.53;5005839;28;20038;-82
2023/09/14 01:10:15;;;;;;;5.80;2.80;;;9.10;99.90;;;-144.05;83.27;56942.28;5006284;28;20022;-80
2023/09/14 01:12:46;;;;;;;7.43;2.97;;;15.40;99.90;;;-144.05;83.21;56940.16;4987765;28;20034;-81
2023/09/14 01:15:26;;;;;;;11.25;3.38;;;14.80;99.90;;;-144.05;82.80;56965.66;5003112;28;20110;-81
2023/09/14 01:18:19;;;;;;;4.68;3.05;;;15.40;99.90;;;-144.05;82.64;56980.53;5003655;28;20033;-80
2023/09/14 01:21:24;;;;;;;5.75;2.88;;;12.20;99.90;;;-144.05;82.84;56942.28;5002951;28;20037;-79
2023/09/14 01:24:42;;;;;;;6.60;3.47;;;14.90;99.90;;;-144.05;83.29;56969.91;5002067;28;20034;-79
2023/09/14 01:27:09;;;;;;;9.18;3.00;;;15.20;99.90;;;-144.05;83.45;56952.91;5000290;28;20038;-80
2023/09/14 01:29:35;;;;;;;4.70;2.95;;;15.60;99.90;;;-144.05;83.61;56974.16;4983246;28;20054;-81
2023/09/14 01:32:01;;;;;;;9.82;3.67;;;15.40;99.90;;;-144.05;83.72;56969.91;5000061;28;20034;-78
2023/09/14 01:34:27;;;;;;;7.45;3.38;;;;;;;-144.05;84.01;56963.53;4998555;28;20387;-79
2023/09/14 01:37:04;;;;;;;8.35;3.15;;;15.40;99.90;;;-144.05;84.32;56967.78;4999577;28;20029;-79
2023/09/14 01:39:33;;;;;;;8.38;3.53;;;9.20;99.90;;;-144.05;84.23;56980.53;4999869;28;20037;-80
2023/09/14 01:42:01;;;;;;;8.38;3.50;;;15.10;99.90;;;-144.05;84.38;56955.03;4981562;28;20109;-79
2023/09/14 01:44:28;;;;;;;10.07;3.90;;;15.20;99.90;;;-144.05;84.53;56967.78;5000172;28;20534;-79
2023/09/14 01:46:56;;;;;;;8.38;3.42;;;;;;;-144.05;84.67;56957.16;4981558;28;20424;-80
2023/09/14 01:49:22;;;;;;;7.43;4.03;;;;;;;-144.05;84.67;56967.78;4999399;28;20027;-80
2023/09/14 01:51:48;;;;;;;5.80;3.13;;;15.10;99.90;;;-144.05;84.96;56980.53;4998209;28;20038;-79
2023/09/14 01:54:14;;;;;;;9.55;3.42;;;15.50;99.90;;;-144.05;84.84;56940.16;4997434;28;20041;-80
2023/09/14 01:56:42;;;;;;;11.55;4.25;;;15.10;99.90;;;-144.05;85.02;56963.53;4996891;28;20054;-79
2023/09/14 01:59:07;;;;;;;9.60;3.97;;;9.30;99.90;;;-144.05;84.97;56944.41;4996906;28;20034;-79
2023/09/14 02:01:33;;;;;;;7.13;3.63;;;8.90;99.90;;;-144.05;85.06;56978.41;4996827;28;20026;-79
2023/09/14 02:03:59;;;;;;;8.73;3.72;;;9.20;99.90;;;-144.05;85.01;56946.53;4995983;28;20109;-78
2023/09/14 02:06:25;;;;;;;9.98;3.40;;;15.40;99.90;;;-144.05;85.04;56944.41;4995781;28;20030;-79
2023/09/14 02:08:51;;;;;;;12.05;4.15;;;9.00;99.90;;;-144.05;85.12;56969.91;4995723;28;20030;-78
2023/09/14 02:11:16;;;;;;;8.70;3.42;;;11.70;99.90;;;-144.05;85.12;56952.91;4978007;28;20046;-79
2023/09/14 02:13:43;;;;;;;11.77;3.30;;;14.80;99.90;;;-144.05;85.01;56961.41;4995204;28;20498;-79
2023/09/14 02:16:09;;;;;;;9.95;3.75;;;8.80;99.90;;;-144.05;85.09;56959.28;4994765;28;20032;-79
2023/09/14 02:18:35;;;;;;;11.23;3.83;;;15.10;99.90;;;-144.05;85.07;56974.16;4977468;28;20513;-79
2023/09/14 02:21:01;;;;;;;9.32;3.90;;;;;;;-144.05;85.05;56959.28;4994710;28;20089;-79
2023/09/14 02:23:27;;;;;;;6.13;3.42;;;14.90;99.90;;;-144.05;85.06;56963.53;4976890;28;20076;-77
2023/09/14 02:25:53;;;;;;;6.85;2.92;;;8.90;99.90;;;-144.05;84.76;56967.78;4976275;28;20506;-79
2023/09/14 02:28:20;;;;;;;13.18;3.10;;;9.30;99.90;;;-144.05;85.29;56967.78;4994210;28;20110;-78
2023/09/14 02:30:47;;;;;;;5.63;2.58;;;;;;;-144.05;85.07;56963.53;4994109;28;20034;-77
2023/09/14 02:33:13;;;;;;;4.90;2.80;;;15.10;99.90;;;-144.05;85.21;56967.78;4993161;28;20038;-77
2023/09/14 02:35:41;;;;;;;7.40;3.42;;;15.30;99.90;;;-144.05;85.15;56952.91;4993166;28;20077;-78
2023/09/14 02:38:08;;;;;;;5.22;3.03;;;14.80;99.90;;;-144.05;85.36;56961.41;4993186;28;20479;-78
2023/09/14 02:40:35;;;;;;;8.10;3.65;;;14.90;99.90;;;-144.05;85.44;56980.53;4975572;28;20160;-76
2023/09/14 02:43:01;;;;;;;7.63;3.97;;;15.40;99.90;;;-144.05;85.47;56967.78;4995808;28;20030;-78
2023/09/14 02:45:28;;;;;;;13.85;4.38;;;14.70;99.90;;;-144.05;85.07;56980.53;4992440;28;20037;-78
2023/09/14 02:47:54;;;;;;;9.68;3.20;;;15.20;99.90;;;-144.05;85.16;56963.53;4992750;28;20037;-79
2023/09/14 02:50:20;;;;;;;7.93;3.78;;;;;;;-144.05;85.09;56946.53;4992716;28;20031;-79
2023/09/14 02:52:46;;;;;;;5.53;2.92;;;15.10;99.90;;;-144.05;85.31;56955.03;4992595;28;20033;-78
2023/09/14 02:55:12;;;;;;;4.47;2.58;;;15.20;99.90;;;-144.05;85.09;56959.28;4991838;28;20399;-79
2023/09/14 02:57:38;;;;;;;7.13;2.40;;;14.80;99.90;;;-144.05;85.34;56965.66;4991589;28;20030;-79
2023/09/14 03:00:07;;;;;;;5.47;2.60;;;15.20;99.90;;;-144.05;85.27;56963.53;4991299;28;20026;-76
2023/09/14 03:02:34;;;;;;;4.45;2.40;;;15.00;99.90;;;-144.05;85.41;56972.03;4975115;28;20100;-77
2023/09/14 03:05:00;;;;;;;11.95;3.58;;;9.00;99.90;;;-144.05;85.28;56984.78;4975226;28;20084;-77
2023/09/14 03:07:25;;;;;;;7.63;3.72;;;9.10;99.90;;;-144.05;85.48;56946.53;5034801;23;20053;-82
2023/09/14 03:09:51;;;;;;;5.75;3.35;;;15.30;99.90;;;-144.05;85.58;56965.66;5015208;28;20022;-81
2023/09/14 03:12:17;;;;;;;14.30;3.72;;;;;;;-144.05;85.39;56959.28;4998418;28;20033;-83
2023/09/14 03:14:44;;;;;;;5.95;2.83;;;;;;;-144.05;85.40;56969.91;4999504;28;20029;-83
2023/09/14 03:17:09;;;;;;;15.30;3.30;;;15.40;99.90;;;-144.05;85.42;56929.53;4997244;28;20456;-85
2023/09/14 03:19:35;;;;;;;4.57;3.10;;;15.50;99.90;;;-144.05;85.41;56963.53;5000007;28;20041;-81
2023/09/14 03:22:01;;;;;;;6.72;3.25;;;;;;;-144.05;85.47;56972.03;4984976;28;20038;-84
2023/09/14 03:24:27;;;;;;;7.88;3.40;;;15.60;99.90;;;-144.05;85.51;56976.28;5006672;28;20033;-82
2023/09/14 03:26:53;;;;;;;8.77;3.10;;;;;;;-144.05;85.44;56946.53;5009038;28;20029;-80
2023/09/14 03:29:20;;;;;;;12.80;3.00;;;;;;;-144.05;85.36;56978.41;5011201;28;20057;-78
2023/09/14 03:31:46;;;;;;;11.60;3.33;;;9.00;99.90;;;-144.05;85.18;56967.78;5005821;28;20026;-84
2023/09/14 03:34:12;;;;;;;4.60;2.80;;;;;;;-144.05;85.48;56957.16;4986110;28;20045;-82
2023/09/14 03:36:38;;;;;;;5.30;2.97;;;11.30;99.90;;;-144.05;85.51;56972.03;5005297;28;20112;-82
2023/09/14 03:39:04;;;;;;;11.05;3.10;;;;;;;-144.05;85.32;56957.16;4994828;28;20061;-88
2023/09/14 03:41:30;;;;;;;9.25;2.83;;;15.50;99.90;;;-144.05;85.44;56963.53;4978324;28;20030;-82
2023/09/14 03:43:56;;;;;;;9.32;3.13;;;8.70;99.90;;;-144.05;85.42;56967.78;4976680;28;20031;-85
2023/09/14 03:46:23;;;;;;;11.50;4.05;;;15.60;99.90;;;-144.05;85.27;56967.78;4976291;28;20049;-83
2023/09/14 03:48:48;;;;;;;10.75;3.20;;;9.10;99.90;;;-144.05;85.25;56959.28;4994120;28;20510;-84
2023/09/14 03:51:14;;;;;;;9.20;3.10;;;15.10;99.90;;;-144.05;85.22;56942.28;4995306;28;20030;-84
2023/09/14 03:53:41;;;;;;;7.50;3.00;;;;;;;-144.05;85.40;56927.41;4986870;28;20026;-83
2023/09/14 03:56:07;;;;;;;11.23;3.00;;;;;;;-144.05;84.88;56963.53;4962063;28;20118;-84
2023/09/14 03:58:34;;;;;;;9.13;2.83;;;;;;;-144.05;84.51;56957.16;4991304;28;20101;-83
2023/09/14 04:01:00;;;;;;;7.22;2.70;;;;;;;-144.05;84.97;56952.91;4984087;28;20035;-84
2023/09/14 04:03:26;;;;;;;6.65;2.90;;;;;;;-144.05;85.14;56965.66;4989871;28;20416;-84
2023/09/14 04:05:52;;;;;;;4.75;2.53;;;;;;;-144.05;84.97;56965.66;4993521;28;20050;-83
2023/09/14 04:08:18;;;;;;;6.22;3.28;;;8.60;99.90;;;-144.05;84.90;56984.78;4990581;28;20451;-85
2023/09/14 04:10:44;;;;;;;9.77;3.22;;;9.50;99.90;;;-144.05;85.16;56965.66;4994408;28;20089;-84
2023/09/14 04:13:34;;;;;;;5.25;2.53;;;15.20;99.90;;;-144.05;85.54;56969.91;4981434;28;20108;-86
2023/09/14 04:16:04;;;;;;;5.38;2.42;;;11.60;99.90;;;-144.05;85.27;56989.00;4998356;28;20099;-83
2023/09/14 04:18:34;;;;;;;7.75;3.22;;;;;;;-144.05;85.28;56946.53;4998696;28;20573;-83
2023/09/14 04:21:02;;;;;;;8.38;2.92;;;14.70;99.90;;;-144.05;85.46;56955.03;4965242;28;20035;-84
2023/09/14 04:23:29;;;;;;;4.90;2.40;;;9.30;99.90;;;-144.05;85.53;56946.53;4999528;28;20028;-85
2023/09/14 04:25:55;;;;;;;9.68;3.20;;;9.40;99.90;;;-144.05;85.42;56961.41;5003025;28;20081;-84
2023/09/14 04:28:21;;;;;;;8.18;2.80;;;11.80;99.90;;;-144.05;85.42;56946.53;4995067;28;20034;-84
2023/09/14 04:30:54;;;;;;;10.55;3.35;;;11.80;99.90;;;-144.05;85.44;56967.78;4989599;28;20023;-84
2023/09/14 04:33:21;;;;;;;8.00;2.95;;;;;;;-144.05;85.44;56982.66;4998837;28;20031;-84
2023/09/14 04:35:46;;;;;;;11.38;3.05;;;9.50;99.90;;;-144.05;85.33;56974.16;4998719;28;20093;-86
2023/09/14 04:38:13;;;;;;;11.40;3.30;;;;;;;-144.05;85.39;56944.41;4998754;28;20038;-84
2023/09/14 04:40:43;;;;;;;13.63;3.33;;;15.20;99.90;;;-144.05;85.32;56965.66;4975200;28;20311;-84
2023/09/14 04:43:11;;;;;;;10.25;3.75;;;9.30;99.90;;;-144.05;85.30;56940.16;4988418;28;20041;-85
2023/09/14 04:45:37;;;;;;;5.35;2.75;;;15.30;99.90;;;-144.05;85.41;56965.66;4998875;28;20084;-85
2023/09/14 04:48:03;;;;;;;7.18;2.78;;;15.10;99.90;;;-144.05;85.52;56948.66;4995575;28;20484;-83
2023/09/14 04:50:29;;;;;;;5.70;3.13;;;;;;;-144.05;85.19;56948.66;4978140;28;20042;-83
2023/09/14 04:52:56;;;;;;;7.40;2.90;;;14.90;99.90;;;-144.05;85.37;56963.53;4982617;28;20030;-84
2023/09/14 04:55:22;;;;;;;4.82;2.75;;;15.20;99.90;;;-144.05;85.48;56976.28;4982406;28;20034;-86
2023/09/14 04:57:48;;;;;;;5.00;2.70;;;15.20;99.90;;;-144.05;85.59;56976.28;4974673;28;20146;-84
2023/09/14 05:00:15;;;;;;;8.50;3.50;;;14.70;99.90;;;-144.05;85.48;56982.66;4999668;28;20101;-84
2023/09/14 05:02:41;;;;;;;12.07;3.80;;;15.30;99.90;;;-144.05;85.09;56980.53;4982604;28;20026;-84
2023/09/14 05:05:10;;;;;;;5.72;3.28;;;15.10;99.90;;;-144.05;85.10;56976.28;4990596;28;20030;-85
2023/09/14 05:07:39;;;;;;;10.88;3.85;;;15.00;99.90;;;-144.05;85.13;56986.91;4989172;28;20045;-85
2023/09/14 05:10:08;;;;;;;5.13;2.75;;;9.40;99.90;;;-144.05;85.08;56950.78;4995470;28;20058;-85
2023/09/14 05:12:33;;;;;;;3.83;2.65;;;9.60;99.90;;;-144.05;85.06;56959.28;5000596;28;20026;-85
2023/09/14 05:15:00;;;;;;;7.32;2.83;;;;;;;-144.05;85.20;56948.66;4985183;28;20027;-83
2023/09/14 05:17:25;;;;;;;6.40;3.42;;;12.10;99.90;;;-144.05;85.07;56961.41;4991636;28;20136;-83
2023/09/14 05:19:51;;;;;;;6.55;2.85;;;9.70;99.90;;;-144.05;85.11;56961.41;4968559;28;20031;-83
2023/09/14 05:22:17;;;;;;;8.02;3.13;;;;;;;-144.05;85.16;56967.78;5002083;28;20033;-84
2023/09/14 05:24:44;;;;;;;11.55;3.28;;;12.10;99.90;;;-144.05;84.94;56935.91;4978946;28;20066;-84
2023/09/14 05:27:10;;;;;;;12.75;3.88;;;14.90;99.90;;;-144.05;84.77;56959.28;5001051;28;20090;-83
2023/09/14 05:29:36;;;;;;;8.95;3.97;;;14.90;99.90;;;-144.05;84.97;56969.91;4988724;28;20045;-83
2023/09/14 05:32:03;;;;;;;8.07;3.53;;;12.20;99.90;;;-144.05;84.53;56961.41;4983883;28;20030;-82
2023/09/14 05:34:28;;;;;;;5.22;2.75;;;9.40;99.90;;;-144.05;84.67;56976.28;4985600;28;20034;-84
2023/09/14 05:36:55;;;;;;;10.00;3.45;;;;;;;-144.05;84.57;56935.91;5004647;28;20022;-85
2023/09/14 05:39:20;;;;;;;6.90;2.85;;;15.10;99.90;;;-144.05;84.84;56978.41;5004953;28;20403;-84
2023/09/14 05:41:47;;;;;;;8.30;3.47;;;;;;;-144.05;84.88;56942.28;5002855;28;20050;-84
2023/09/14 05:44:13;;;;;;;7.20;2.85;;;15.10;99.90;;;-144.05;84.97;56948.66;5006638;28;20076;-83
2023/09/14 05:46:39;;;;;;;7.43;3.05;;;12.40;99.90;;;-144.05;84.82;56963.53;5003855;28;20378;-84
2023/09/14 05:49:06;;;;;;;8.00;3.08;;;12.50;99.90;;;-144.05;84.07;56940.16;4986361;28;20038;-84
2023/09/14 05:51:32;;;;;;;11.57;3.78;;;12.50;99.90;;;-144.05;83.91;56959.28;4984535;28;20033;-85
2023/09/14 05:53:58;;;;;;;8.82;3.20;;;14.70;99.90;;;-144.05;83.76;56967.78;5002632;28;20391;-83
2023/09/14 05:56:24;;;;;;;6.78;2.63;;;;;;;-144.05;83.86;56959.28;4981671;28;20090;-84
2023/09/14 05:58:50;;;;;;;8.50;3.13;;;10.10;99.90;;;-144.05;84.08;56944.41;4983695;28;20033;-83
2023/09/14 06:01:16;;;;;;;6.35;2.80;;;15.30;99.90;;;-144.05;83.92;56955.03;4984169;28;20062;-84
2023/09/14 06:03:42;;;;;;;8.75;3.63;;;10.50;99.90;;;-144.05;83.56;56957.16;4993451;28;20077;-84
2023/09/14 06:06:08;;;;;;;10.15;4.25;;;10.70;99.90;;;-144.05;82.86;56974.16;4976278;28;20035;-86
2023/09/14 06:08:35;;;;;;;10.23;3.28;;;15.30;99.90;;;-144.05;82.68;56933.78;4987453;28;20057;-84
2023/09/14 06:11:01;;;;;;;8.02;3.22;;;;;;;-144.05;82.44;56933.78;4992277;28;20038;-86
2023/09/14 06:13:28;;;;;;;10.70;3.60;;;15.40;99.90;;;-144.05;82.37;56944.41;4983927;28;20447;-84
2023/09/14 06:15:54;;;;;;;11.30;3.83;;;13.20;99.90;;;-144.05;81.79;56963.53;5001678;28;20081;-85
2023/09/14 06:18:21;;;;;;;10.40;4.30;;;;;;;-144.05;81.44;56946.53;4983005;28;20026;-84
2023/09/14 06:20:47;;;;;;;11.38;4.05;;;15.20;99.90;;;-144.05;80.16;56946.53;5000127;28;20030;-82
2023/09/14 06:23:13;;;;;;;11.32;4.00;;;;;;;-144.05;80.22;56950.78;4983857;28;20034;-84
2023/09/14 06:25:39;;;;;;;10.82;3.95;;;15.40;99.90;;;-144.05;80.02;56963.53;5000722;28;20060;-84
2023/09/14 06:28:05;;;;;;;9.18;3.70;;;15.50;99.90;;;-144.05;79.89;56933.78;4982367;28;20070;-84
2023/09/14 06:30:32;;;;;;;7.75;2.95;;;15.80;99.90;;;-144.05;79.38;56980.53;4999748;28;20049;-83
2023/09/14 06:32:58;;;;;;;9.05;4.55;;;;;;;-144.05;79.18;56963.53;4983175;28;20030;-86
2023/09/14 06:35:24;;;;;;;8.68;3.47;;;13.00;99.90;;;-144.05;78.06;56959.28;4991442;28;20032;-85
2023/09/14 06:37:50;;;;;;;7.70;3.50;;;16.30;99.90;;;-144.05;75.81;56955.03;5001436;28;20080;-84
2023/09/14 06:40:17;;;;;;;8.82;2.90;;;;;;;-144.05;74.33;56967.78;4991984;28;20030;-85
2023/09/14 06:42:42;;;;;;;6.20;3.30;;;15.40;99.90;;;-144.05;71.08;56980.53;4998761;28;20092;-83
2023/09/14 06:45:09;;;;;;;6.78;3.05;;;15.90;99.90;;;-144.05;71.16;56980.53;4966441;28;20026;-86
2023/09/14 06:47:35;;;;;;;10.57;2.88;;;;;;;-144.05;71.28;56952.91;5000049;28;20037;-86
2023/09/14 06:50:01;;;;;;;9.15;3.50;;;12.70;99.90;;;-144.05;71.10;56980.53;4998581;28;20042;-85
2023/09/14 06:52:27;;;;;;;8.70;3.10;;;15.30;99.90;;;-144.05;71.72;56948.66;4980957;28;20509;-84
2023/09/14 06:54:53;;;;;;;6.20;3.13;;;;;;;-144.05;72.32;56950.78;4980792;28;20030;-84
2023/09/14 06:57:19;;;;;;;9.77;3.28;;;12.80;99.90;;;-144.05;71.96;56969.91;4986318;28;20049;-84
2023/09/14 06:59:45;;;;;;;10.15;3.50;;;16.50;99.90;;;-144.05;70.29;56959.28;5008603;28;20039;-79
2023/09/14 07:02:11;;;;;;;10.52;2.60;;;13.10;99.90;;;-144.05;70.85;56950.78;5004280;28;20030;-80
2023/09/14 07:04:37;;;;;;;12.55;3.00;;;;;;;-144.05;70.73;56955.03;5004407;28;20395;-78
2023/09/14 07:07:03;;;;;;;12.70;3.28;;;13.10;99.90;;;-144.05;70.20;56967.78;4996739;28;20041;-78
2023/09/14 07:09:29;;;;;;;6.88;2.65;;;13.50;99.90;;;-144.05;70.75;56965.66;4997252;28;20038;-82
2023/09/14 07:11:55;;;;;;;7.75;2.90;;;;;;;-144.05;70.09;56957.16;4980252;28;20053;-84
2023/09/14 07:14:21;;;;;;;8.18;3.28;;;17.00;99.90;;;-144.05;69.98;56965.66;4993694;28;20038;-84
2023/09/14 07:16:47;;;;;;;7.15;3.05;;;17.10;99.90;;;-144.05;68.89;56948.66;4983743;28;20023;-83
2023/09/14 07:19:16;;;;;;;17.80;4.30;;;17.30;99.90;;;-144.05;68.78;56957.16;4993375;28;20096;-84
2023/09/14 07:21:42;;;;;;;9.75;3.25;;;13.70;99.90;;;-144.05;68.06;56959.28;4994925;28;20026;-84
2023/09/14 07:24:08;;;;;;;9.70;3.30;;;16.90;99.90;;;-144.05;67.57;56963.53;4984867;28;20369;-82
2023/09/14 07:26:36;;;;;;;9.02;3.47;;;16.70;99.90;;;-144.05;67.85;56965.66;4978528;28;20033;-85
2023/09/14 07:29:02;;;;;;;10.25;3.10;;;16.00;99.90;;;-144.05;67.63;56965.66;4994943;28;20042;-82
2023/09/14 07:31:28;;;;;;;7.55;3.63;;;13.50;99.90;;;-144.05;67.07;56974.16;4991356;28;20041;-82
2023/09/14 07:33:54;;;;;;;8.98;3.50;;;13.80;99.90;;;-144.05;67.30;56959.28;4988740;28;20031;-82
2023/09/14 07:36:20;;;;;;;11.90;4.00;;;17.20;99.90;;;-144.05;65.72;56969.91;4996215;28;20545;-82
2023/09/14 07:38:45;;;;;;;9.93;4.78;;;17.20;99.90;;;-144.05;66.54;56955.03;4995681;28;20026;-82
2023/09/14 07:41:12;;;;;;;11.40;4.57;;;16.70;99.90;;;-144.05;65.34;56980.53;4994392;28;20121;-84
2023/09/14 07:43:37;;;;;;;11.38;3.67;;;17.60;99.90;;;-144.05;64.86;56961.41;4996701;28;20030;-83
2023/09/14 07:46:03;;;;;;;8.73;4.05;;;17.00;99.90;;;-144.05;64.96;56976.28;4979651;28;20091;-83
2023/09/14 07:48:29;;;;;;;7.68;3.70;;;17.70;99.90;;;-144.05;64.80;56972.03;4995062;28;20030;-82
2023/09/14 07:50:55;;;;;;;11.25;3.58;;;17.20;99.90;;;-144.05;64.38;56959.28;4995378;28;20499;-84
2023/09/14 07:53:21;;;;;;;7.50;3.20;;;17.20;99.90;;;-144.05;64.12;56972.03;4986005;28;20030;-82
2023/09/14 07:55:52;;;;;;;9.25;3.90;;;17.70;99.90;;;-144.05;63.38;56955.03;4978662;28;20113;-83
2023/09/14 07:58:21;;;;;;;11.55;4.68;;;17.40;99.90;;;-144.05;63.48;56974.16;4980037;28;20057;-84
2023/09/14 08:00:48;;;;;;;13.20;3.40;;;17.00;99.90;;;-144.05;62.10;56978.41;4994785;28;20049;-83
2023/09/14 08:03:14;;;;;;;7.40;3.25;;;14.60;99.90;;;-144.05;63.06;56980.53;4994635;28;20023;-82
2023/09/14 08:05:42;;;;;;;11.27;4.20;;;18.60;99.90;;;-144.05;62.67;56984.78;4995943;28;20347;-83
2023/09/14 08:08:09;;;;;;;13.52;3.83;;;17.30;99.90;;;-144.05;61.99;56980.53;4990123;28;20086;-83
2023/09/14 08:10:36;;;;;;;11.05;4.18;;;18.50;99.90;;;-144.05;61.26;56963.53;4990784;28;20026;-84
2023/09/14 08:13:02;;;;;;;8.80;4.35;;;19.30;99.90;;;-144.05;59.67;56978.41;4999943;28;20026;-82
2023/09/14 08:15:29;;;;;;;9.88;3.70;;;15.50;99.90;;;-144.05;59.71;56976.28;4998450;28;20042;-82
2023/09/14 08:17:55;;;;;;;9.80;3.75;;;18.90;99.90;;;-144.05;58.53;56982.66;4984351;28;20049;-83
2023/09/14 08:20:21;;;;;;;8.32;2.92;;;15.70;99.90;;;-144.05;57.70;56974.16;4997516;28;20038;-82
2023/09/14 08:22:48;;;;;;;13.35;4.00;;;19.10;99.90;;;-144.05;57.63;56999.63;4978962;28;20030;-85
2023/09/14 08:25:15;;;;;;;10.02;3.40;;;;;;;-144.05;57.72;56957.16;4978761;28;20117;-83
2023/09/14 08:27:43;;;;;;;6.95;3.13;;;19.70;99.90;;;-144.05;56.10;56972.03;4996212;28;20038;-82
2023/09/14 08:30:11;;;;;;;8.35;3.25;;;20.00;99.90;;;-144.05;53.58;57001.75;4994953;28;20050;-83
2023/09/14 08:32:38;;;;;;;9.52;3.90;;;19.10;99.90;;;-144.05;52.48;56980.53;4997623;28;20081;-84
2023/09/14 08:35:28;;;;;;;7.82;3.03;;;19.30;99.90;;;-144.05;53.43;56993.25;4988068;28;20639;-83
2023/09/14 08:37:55;;;;;;;8.68;3.08;;;17.60;99.90;;;-144.05;53.33;56989.00;4996711;28;20031;-83
2023/09/14 08:40:23;;;;;;;6.85;3.28;;;20.70;99.90;;;-144.05;52.94;57031.50;4996744;28;20499;-83
2023/09/14 08:42:54;;;;;;;9.73;3.20;;;21.30;99.90;;;-144.05;51.13;57023.00;4997282;28;20037;-84
2023/09/14 08:45:28;;;;;;;11.30;3.28;;;21.10;99.90;;;-144.05;50.47;57016.63;4985055;28;20031;-84
2023/09/14 08:47:57;;;;;;;9.07;2.72;;;21.30;99.90;;;-144.05;49.59;57010.25;4993845;28;20046;-82
2023/09/14 08:50:29;;;;;;;7.70;2.78;;;21.40;99.90;;;-144.05;49.12;57027.25;4978939;28;20037;-86
2023/09/14 08:52:55;;;;;;;9.82;2.40;;;21.40;99.90;;;-144.05;48.48;57031.50;4983199;28;20122;-84
2023/09/14 08:55:31;;;;;;;9.68;2.72;;;20.50;99.90;;;-144.05;48.06;57003.88;5004842;28;20037;-84
2023/09/14 08:57:58;;;;;;;7.10;2.85;;;21.70;99.90;;;-144.05;46.74;57014.50;4990560;28;20053;-83
2023/09/14 09:00:29;;;;;;;8.50;2.90;;;20.90;99.90;;;-144.05;47.00;56999.63;4995721;28;20510;-82
2023/09/14 09:02:57;;;;;;;9.13;2.95;;;18.80;99.90;;;-144.05;45.89;57018.75;5001373;28;20030;-84
2023/09/14 09:05:25;;;;;;;7.80;2.80;;;18.60;99.90;;;-144.05;44.58;57020.88;4999035;28;20035;-82
2023/09/14 09:07:54;;;;;;;4.88;2.13;;;22.00;99.90;;;-144.05;44.99;57006.00;5055443;23;20148;-80
2023/09/14 09:10:27;;;;;;;8.13;3.00;;;21.60;99.90;;;-144.05;45.54;56993.25;5047529;28;20025;-80
2023/09/14 09:13:00;;;;;;;6.68;2.30;;;20.40;99.90;;;-144.05;44.64;57010.25;5029726;28;20029;-79
2023/09/14 09:15:28;;;;;;;7.20;2.03;;;21.60;99.90;;;-144.05;43.35;57006.00;5033006;28;20026;-79
2023/09/14 09:18:04;;;;;;;5.30;2.70;;;18.40;99.90;;;-144.05;44.32;57008.13;5016775;28;20037;-79
2023/09/14 09:20:32;;;;;;;7.82;2.70;;;;;;;-144.05;42.08;56999.63;5016963;28;20065;-79
2023/09/14 09:23:00;;;;;;;5.50;2.33;;;20.30;99.90;;;-144.05;42.48;57014.50;5017648;28;20571;-79
2023/09/14 09:25:29;;;;;;;8.32;2.92;;;21.70;99.90;;;-144.05;43.53;57023.00;5018277;28;20037;-78
2023/09/14 09:28:04;;;;;;;6.57;2.40;;;21.70;99.90;;;-144.05;45.47;57008.13;5017209;28;20036;-79
2023/09/14 09:30:35;;;;;;;5.03;2.30;;;21.70;99.90;;;-144.05;44.16;57001.75;5018774;28;20109;-78
2023/09/14 09:33:03;;;;;;;9.45;2.40;;;21.60;99.90;;;-144.05;42.53;57001.75;5016483;28;20025;-81
2023/09/14 09:35:31;;;;;;;5.78;2.15;;;22.10;99.90;;;-144.05;41.67;57035.75;5017593;28;20025;-77
2023/09/14 09:38:00;;;;;;;5.78;2.15;;;22.80;99.90;;;-144.05;40.19;57056.97;5017788;28;20084;-78
2023/09/14 09:40:35;;;;;;;5.18;1.70;;;23.80;99.90;;;-144.05;39.55;57046.38;5016500;28;20041;-79
2023/09/14 09:43:07;;;;;;;7.53;2.22;;;22.70;99.90;;;-144.05;40.03;57052.75;5017675;28;20030;-81
2023/09/14 09:45:33;;;;;;;6.85;2.35;;;20.10;99.90;;;-144.05;41.46;57052.75;5016434;28;20038;-79
2023/09/14 09:48:03;;;;;;;4.07;2.10;;;23.40;99.90;;;-144.05;40.09;57052.75;5017682;28;20034;-80
2023/09/14 09:50:29;;;;;;;4.32;2.00;;;19.70;99.90;;;-144.05;39.57;57071.84;5017081;28;20041;-81
2023/09/14 09:52:55;;;;;;;6.20;2.05;;;23.20;99.90;;;-144.05;38.41;57073.97;5000378;28;20439;-79
2023/09/14 09:55:28;;;;;;;4.65;1.90;;;23.00;99.90;;;-144.05;38.00;57040.00;5017602;28;20053;-79
2023/09/14 09:57:59;;;;;;;6.88;2.35;;;22.10;99.90;;;-144.05;38.15;57048.50;5018649;28;20029;-80
2023/09/14 10:00:36;;;;;;;4.95;1.58;;;20.20;99.90;;;-144.05;38.12;57046.38;5018919;28;20104;-78
2023/09/14 10:03:03;;;;;;;4.70;1.73;;;23.40;99.90;;;-144.05;37.05;57084.59;5016113;28;20113;-79
2023/09/14 10:05:40;;;;;;;5.38;1.70;;;20.00;99.90;;;-144.05;37.92;57048.50;5016259;28;20034;-79
2023/09/14 10:08:21;;;;;;;7.70;2.03;;;19.50;99.90;;;-144.05;38.03;57035.75;5030570;28;20066;-78
2023/09/14 10:10:52;;;;;;;4.70;1.95;;;21.50;99.90;;;-144.05;38.22;57040.00;5011523;28;20057;-79
2023/09/14 10:13:25;;;;;;;3.97;1.88;;;19.50;99.90;;;-144.05;37.41;57050.63;5028738;28;20085;-81
2023/09/14 10:15:54;;;;;;;5.55;1.98;;;19.80;99.90;;;-144.05;36.82;57056.97;5011704;28;20041;-81
2023/09/14 10:18:23;;;;;;;7.72;1.80;;;22.70;99.90;;;-144.05;37.91;57073.97;5015509;28;20077;-78
2023/09/14 10:20:53;;;;;;;4.88;1.98;;;23.00;99.90;;;-144.05;37.70;57063.34;5018211;28;20041;-80